Time;durP1;ratioP1;P1;durP2;ratioP2;P2;SDS_P1;SDS_P2;PMS_P1;PMS_P2;Temp;Humidity;BMP_temperature;BMP_pressure;BME280_temperature;BME280_humidity;BME280_pressure;Samples;Min_cycle;Max_cycle;Signal;HPM_P1;HPM_P2
2022/01/26 00:07:10;;;;;;;;;;;-2.30;99.90;;;;;;5000049;28;20135;-86
2022/01/26 00:09:35;;;;;;;;;;;-2.30;99.90;;;;;;4992315;28;20700;-88
2022/01/26 00:12:01;;;;;;;;;;;-2.40;99.90;;;;;;5000653;28;19913;-87
2022/01/26 00:14:34;;;;;;;;;;;-2.40;99.90;;;;;;5001445;28;20329;-88
2022/01/26 00:17:01;;;;;;;;;;;-2.40;99.90;;;;;;4998300;28;19922;-86
2022/01/26 00:19:42;;;;;;;;;;;-2.40;99.90;;;;;;4992413;28;19936;-86
2022/01/26 00:22:08;;;;;;;;;;;-2.40;99.90;;;;;;4999735;28;19940;-89
2022/01/26 00:27:29;;;;;;;;;;;-2.30;99.90;;;;;;4999761;28;19940;-87
2022/01/26 00:31:13;;;;;;;;;;;-2.40;99.90;;;;;;4981170;28;19918;-87
2022/01/26 00:41:04;;;;;;;;;;;-2.40;99.90;;;;;;4993647;28;19976;-87
2022/01/26 00:43:30;;;;;;;;;;;-2.40;99.90;;;;;;4996962;28;19921;-88
2022/01/26 00:45:57;;;;;;;;;;;-2.50;99.90;;;;;;5001186;28;20337;-88
2022/01/26 00:48:24;;;;;;;;;;;-2.40;99.90;;;;;;4980160;28;19963;-86
2022/01/26 00:50:52;;;;;;;;;;;-2.50;99.90;;;;;;4982536;28;19913;-86
2022/01/26 00:53:19;;;;;;;;;;;-2.40;99.90;;;;;;4983462;28;19917;-86
2022/01/26 00:55:45;;;;;;;;;;;-2.40;99.90;;;;;;4980983;28;19967;-87
2022/01/26 00:58:10;;;;;;;;;;;-2.40;99.90;;;;;;4977476;28;19953;-87
2022/01/26 01:00:36;;;;;;;;;;;-2.30;99.90;;;;;;4994748;28;19922;-88
2022/01/26 01:03:02;;;;;;;;;;;-2.20;99.90;;;;;;4975980;28;20338;-88
2022/01/26 01:05:44;;;;;;;;;;;-2.30;99.90;;;;;;4913802;28;2023637;-86
2022/01/26 01:08:15;;;;;;;;;;;-2.20;99.90;;;;;;4994436;28;19918;-86
2022/01/26 01:10:45;;;;;;;;;;;-2.20;99.90;;;;;;4999893;28;19921;-87
2022/01/26 01:13:15;;;;;;;;;;;-2.30;99.90;;;;;;4999963;28;19922;-87
2022/01/26 01:15:41;;;;;;;;;;;-2.20;99.90;;;;;;4984740;28;19964;-87
2022/01/26 01:18:18;;;;;;;;;;;-2.30;99.90;;;;;;4979321;28;19957;-86
2022/01/26 01:21:04;;;;;;;;;;;-2.30;99.90;;;;;;5001438;28;19922;-88
2022/01/26 01:34:07;;;;;;;;;;;-2.30;99.90;;;;;;4999374;28;19945;-87
2022/01/26 01:36:34;;;;;;;;;;;-2.30;99.90;;;;;;5001157;28;19914;-87
2022/01/26 01:39:00;;;;;;;;;;;-2.20;99.90;;;;;;4997000;28;19976;-89
2022/01/26 01:41:25;;;;;;;;;;;-2.20;99.90;;;;;;4983985;28;19918;-87
2022/01/26 01:43:51;;;;;;;;;;;-2.20;99.90;;;;;;4984085;28;19921;-86
2022/01/26 01:46:16;;;;;;;;;;;-2.20;99.90;;;;;;4985025;28;20594;-87
2022/01/26 01:48:42;;;;;;;;;;;-2.10;99.90;;;;;;4995619;28;20373;-87
2022/01/26 01:51:11;;;;;;;;;;;-2.20;99.90;;;;;;5000214;28;19933;-87
2022/01/26 01:53:42;;;;;;;;;;;-2.20;99.90;;;;;;4997113;28;19929;-87
2022/01/26 01:56:09;;;;;;;;;;;-2.20;99.90;;;;;;4996541;28;19929;-84
2022/01/26 01:58:35;;;;;;;;;;;-2.30;99.90;;;;;;4984145;28;19928;-88
2022/01/26 02:01:02;;;;;;;;;;;-2.30;99.90;;;;;;4997495;28;19928;-87
2022/01/26 02:03:28;;;;;;;;;;;-2.30;99.90;;;;;;4979502;28;20270;-84
2022/01/26 02:05:53;;;;;;;;;;;-2.30;99.90;;;;;;4983504;28;20048;-86
2022/01/26 02:08:19;;;;;;;;;;;-2.20;99.90;;;;;;5000983;28;19944;-87
2022/01/26 02:10:45;;;;;;;;;;;-2.30;99.90;;;;;;4981983;28;19929;-86
2022/01/26 02:15:53;;;;;;;;;;;-2.40;99.90;;;;;;4998919;28;19913;-87
2022/01/26 02:53:52;;;;;;;;;;;-2.70;99.90;;;;;;4999715;28;20175;-85
2022/01/26 02:56:41;;;;;;;;;;;-2.70;99.90;;;;;;4980788;28;19918;-87
2022/01/26 03:01:55;;;;;;;;;;;-2.70;99.90;;;;;;4996717;28;19983;-84
2022/01/26 03:06:58;;;;;;;;;;;-2.70;99.90;;;;;;4998258;28;19921;-87
2022/01/26 03:09:29;;;;;;;;;;;-2.70;99.90;;;;;;4980462;28;19917;-88
2022/01/26 03:11:56;;;;;;;;;;;-2.70;99.90;;;;;;4979564;28;19922;-87
2022/01/26 03:16:59;;;;;;;;;;;-2.70;99.90;;;;;;5001213;28;19914;-85
2022/01/26 03:19:39;;;;;;;;;;;-2.70;99.90;;;;;;5000329;28;19957;-86
2022/01/26 03:31:13;;;;;;;;;;;-2.60;99.90;;;;;;4996477;28;19918;-90
2022/01/26 03:38:40;;;;;;;;;;;-2.80;99.90;;;;;;4994580;28;20033;-87
2022/01/26 03:41:19;;;;;;;;;;;-2.80;99.90;;;;;;4985359;28;19963;-86
2022/01/26 03:43:44;;;;;;;;;;;-2.90;99.90;;;;;;4999540;28;20027;-87
2022/01/26 03:46:10;;;;;;;;;;;-2.90;99.90;;;;;;4984636;28;20033;-88
2022/01/26 03:48:35;;;;;;;;;;;-2.90;99.90;;;;;;4998023;28;19941;-86
2022/01/26 03:51:01;;;;;;;;;;;-2.90;99.90;;;;;;4998176;28;20008;-86
2022/01/26 03:53:27;;;;;;;;;;;-2.90;99.90;;;;;;5000580;28;19913;-86
2022/01/26 03:55:53;;;;;;;;;;;-2.90;99.90;;;;;;4985147;28;19921;-84
2022/01/26 03:58:18;;;;;;;;;;;-3.00;99.90;;;;;;5000561;28;19941;-85
2022/01/26 04:00:44;;;;;;;;;;;-3.00;99.90;;;;;;4999562;28;19918;-87
2022/01/26 04:03:09;;;;;;;;;;;-3.00;99.90;;;;;;5002125;28;20420;-85
2022/01/26 04:05:35;;;;;;;;;;;-3.10;99.90;;;;;;5003325;28;19925;-87
2022/01/26 04:08:07;;;;;;;;;;;-3.00;99.90;;;;;;4982229;28;19969;-87
2022/01/26 04:13:04;;;;;;;;;;;-2.90;99.90;;;;;;5001906;28;20269;-88
2022/01/26 04:15:33;;;;;;;;;;;-2.90;99.90;;;;;;4997658;28;19918;-86
2022/01/26 04:18:00;;;;;;;;;;;-2.90;99.90;;;;;;5001746;28;20028;-85
2022/01/26 04:20:29;;;;;;;;;;;-3.10;99.90;;;;;;4998874;28;19921;-89
2022/01/26 04:23:08;;;;;;;;;;;-3.10;99.90;;;;;;4999236;28;20012;-86
2022/01/26 04:25:34;;;;;;;;;;;-3.20;99.90;;;;;;4997413;28;20002;-86
2022/01/26 04:28:05;;;;;;;;;;;-3.20;99.90;;;;;;4981482;28;19932;-87
2022/01/26 04:30:30;;;;;;;;;;;-3.30;99.90;;;;;;4980271;28;19925;-87
2022/01/26 04:33:02;;;;;;;;;;;-3.30;99.90;;;;;;5000493;28;20071;-86
2022/01/26 04:35:28;;;;;;;;;;;-3.20;99.90;;;;;;4997016;28;20258;-87
2022/01/26 04:40:27;;;;;;;;;;;-3.40;99.90;;;;;;5005146;28;20030;-87
2022/01/26 04:43:02;;;;;;;;;;;-3.40;99.90;;;;;;4999923;28;19917;-87
2022/01/26 04:45:28;;;;;;;;;;;-3.40;99.90;;;;;;5001791;28;20572;-88
2022/01/26 04:47:53;;;;;;;;;;;-3.50;99.90;;;;;;4998317;28;20052;-87
2022/01/26 04:50:19;;;;;;;;;;;-3.50;99.90;;;;;;5000498;28;19921;-87
2022/01/26 04:52:46;;;;;;;;;;;-3.50;99.90;;;;;;4997910;28;20240;-85
2022/01/26 04:55:12;;;;;;;;;;;-3.50;99.90;;;;;;4998310;28;20048;-85
2022/01/26 04:57:38;;;;;;;;;;;-3.50;99.90;;;;;;4980941;28;19918;-85
2022/01/26 05:00:05;;;;;;;;;;;-3.50;99.90;;;;;;5000469;28;19925;-87
2022/01/26 05:02:31;;;;;;;;;;;-3.40;99.90;;;;;;4997068;28;19925;-88
2022/01/26 05:04:56;;;;;;;;;;;-3.40;99.90;;;;;;4993239;28;19929;-86
2022/01/26 05:07:22;;;;;;;;;;;-3.40;99.90;;;;;;4999387;28;20119;-87
2022/01/26 05:09:47;;;;;;;;;;;-3.40;99.90;;;;;;4980644;28;19917;-85
2022/01/26 05:12:14;;;;;;;;;;;-3.40;99.90;;;;;;4994160;28;19924;-88
2022/01/26 05:14:42;;;;;;;;;;;-3.40;99.90;;;;;;4994975;28;19960;-87
2022/01/26 05:17:07;;;;;;;;;;;-3.50;99.90;;;;;;4995654;28;20005;-87
2022/01/26 05:19:33;;;;;;;;;;;-3.50;99.90;;;;;;4983599;28;20012;-87
2022/01/26 05:21:58;;;;;;;;;;;-3.50;99.90;;;;;;4998433;28;19987;-87
2022/01/26 05:24:25;;;;;;;;;;;-3.50;99.90;;;;;;5000619;28;20012;-89
2022/01/26 05:26:50;;;;;;;;;;;-3.50;99.90;;;;;;4980395;28;20300;-88
2022/01/26 05:29:16;;;;;;;;;;;-3.50;99.90;;;;;;5001531;28;19918;-86
2022/01/26 05:31:42;;;;;;;;;;;-3.60;99.90;;;;;;4980088;28;20366;-88
2022/01/26 05:34:07;;;;;;;;;;;-3.50;99.90;;;;;;4998148;28;20030;-88
2022/01/26 05:36:33;;;;;;;;;;;-3.50;99.90;;;;;;4984047;28;19917;-88
2022/01/26 05:38:58;;;;;;;;;;;-3.40;99.90;;;;;;5000181;28;19937;-88
2022/01/26 05:41:24;;;;;;;;;;;-3.50;99.90;;;;;;5000518;28;19924;-86
2022/01/26 05:43:49;;;;;;;;;;;-3.50;99.90;;;;;;4997996;28;19929;-88
2022/01/26 05:46:26;;;;;;;;;;;-3.50;99.90;;;;;;4987900;28;20024;-87
2022/01/26 05:48:53;;;;;;;;;;;-3.50;99.90;;;;;;4999790;28;19929;-85
2022/01/26 05:51:18;;;;;;;;;;;-3.50;99.90;;;;;;4997566;28;19918;-84
2022/01/26 05:53:44;;;;;;;;;;;-3.50;99.90;;;;;;4993010;28;20005;-85
2022/01/26 05:56:09;;;;;;;;;;;-3.60;99.90;;;;;;5002041;28;19921;-87
2022/01/26 05:58:35;;;;;;;;;;;-3.50;99.90;;;;;;4995081;28;20400;-87
2022/01/26 06:01:01;;;;;;;;;;;-3.50;99.90;;;;;;4980999;28;19971;-87
2022/01/26 06:03:29;;;;;;;;;;;-3.50;99.90;;;;;;4988867;28;20297;-85
2022/01/26 06:05:54;;;;;;;;;;;-3.50;99.90;;;;;;4982211;28;20234;-86
2022/01/26 06:08:21;;;;;;;;;;;-3.60;99.90;;;;;;5001491;28;20425;-87
2022/01/26 06:10:46;;;;;;;;;;;-3.60;99.90;;;;;;5001578;28;19924;-87
2022/01/26 06:13:12;;;;;;;;;;;-3.60;99.90;;;;;;4984840;28;20049;-87
2022/01/26 06:15:37;;;;;;;;;;;-3.60;99.90;;;;;;5002063;28;20380;-87
2022/01/26 06:18:03;;;;;;;;;;;-3.60;99.90;;;;;;4995593;28;19918;-87
2022/01/26 06:20:29;;;;;;;;;;;-3.50;99.90;;;;;;4981716;28;20563;-86
2022/01/26 06:22:54;;;;;;;;;;;-3.60;99.90;;;;;;4989511;28;19913;-87
2022/01/26 06:25:20;;;;;;;;;;;-3.50;99.90;;;;;;4979044;28;19925;-86
2022/01/26 06:27:46;;;;;;;;;;;-3.60;99.90;;;;;;4983199;28;19921;-89
2022/01/26 06:30:11;;;;;;;;;;;-3.60;99.90;;;;;;4965082;28;20417;-87
2022/01/26 06:32:38;;;;;;;;;;;-3.70;99.90;;;;;;4999502;28;19917;-87
2022/01/26 06:35:06;;;;;;;;;;;-3.70;99.90;;;;;;4980719;28;19913;-86
2022/01/26 06:37:31;;;;;;;;;;;-3.60;99.90;;;;;;4996668;28;19988;-87
2022/01/26 06:39:57;;;;;;;;;;;-3.50;99.90;;;;;;4986711;28;19993;-88
2022/01/26 06:42:27;;;;;;;;;;;-3.50;99.90;;;;;;5000418;28;19932;-86
2022/01/26 06:49:52;;;;;;;;;;;-3.60;99.90;;;;;;5000230;28;19922;-88
2022/01/26 06:52:19;;;;;;;;;;;-3.50;99.90;;;;;;4990252;28;19918;-89
2022/01/26 06:54:44;;;;;;;;;;;-3.60;99.90;;;;;;5007453;28;19969;-88
2022/01/26 06:57:10;;;;;;;;;;;-3.60;99.90;;;;;;4987009;28;19957;-89
2022/01/26 06:59:35;;;;;;;;;;;-3.60;99.90;;;;;;5006428;28;19917;-89
2022/01/26 07:02:01;;;;;;;;;;;-3.60;99.90;;;;;;4992925;28;19925;-88
2022/01/26 07:04:26;;;;;;;;;;;-3.60;99.90;;;;;;4983535;28;19930;-90
2022/01/26 07:06:52;;;;;;;;;;;-3.50;99.90;;;;;;4985360;28;19964;-86
2022/01/26 07:09:19;;;;;;;;;;;-3.60;99.90;;;;;;5005965;28;19913;-87
2022/01/26 07:11:45;;;;;;;;;;;-3.60;99.90;;;;;;4998365;28;19920;-87
2022/01/26 07:14:11;;;;;;;;;;;-3.50;99.90;;;;;;5000078;28;19928;-88
2022/01/26 07:22:06;;;;;;;;;;;-3.40;99.90;;;;;;5001013;28;20675;-88
2022/01/26 07:24:32;;;;;;;;;;;-3.50;99.90;;;;;;5006393;28;19918;-89
2022/01/26 07:26:57;;;;;;;;;;;-3.40;99.90;;;;;;4990418;28;19917;-86
2022/01/26 07:29:24;;;;;;;;;;;-3.40;99.90;;;;;;5006193;28;19922;-89
2022/01/26 07:31:53;;;;;;;;;;;-3.40;99.90;;;;;;4984433;28;19925;-87
2022/01/26 07:34:21;;;;;;;;;;;-3.30;99.90;;;;;;5004778;28;19918;-87
2022/01/26 07:36:49;;;;;;;;;;;-3.30;99.90;;;;;;5003709;28;19929;-89
2022/01/26 07:39:18;;;;;;;;;;;-3.30;99.90;;;;;;5002117;28;19992;-88
2022/01/26 07:41:44;;;;;;;;;;;-3.20;99.90;;;;;;5006254;28;19925;-86
2022/01/26 07:44:09;;;;;;;;;;;-3.20;99.90;;;;;;4986085;28;19975;-88
2022/01/26 07:46:35;;;;;;;;;;;-3.10;99.90;;;;;;5008326;28;19932;-86
2022/01/26 07:49:01;;;;;;;;;;;-3.10;99.90;;;;;;4991943;28;19918;-88
2022/01/26 07:51:26;;;;;;;;;;;-3.10;99.90;;;;;;5003643;28;19917;-88
2022/01/26 07:53:52;;;;;;;;;;;-3.10;99.90;;;;;;5003652;28;19969;-88
2022/01/26 07:56:18;;;;;;;;;;;-3.10;99.90;;;;;;5003847;28;19914;-88
2022/01/26 07:58:43;;;;;;;;;;;-3.20;99.90;;;;;;4999895;28;19928;-86
2022/01/26 08:01:09;;;;;;;;;;;-3.20;99.90;;;;;;4985857;28;19979;-86
2022/01/26 08:03:35;;;;;;;;;;;-3.20;99.90;;;;;;4986462;28;19922;-87
2022/01/26 08:06:01;;;;;;;;;;;-3.10;99.90;;;;;;5003894;28;20400;-88
2022/01/26 08:08:28;;;;;;;;;;;-3.00;99.90;;;;;;4996802;28;19952;-87
2022/01/26 08:10:57;;;;;;;;;;;-2.90;99.90;;;;;;5006081;28;21330;-86
2022/01/26 08:13:23;;;;;;;;;;;-3.00;99.90;;;;;;5000911;28;19996;-86
2022/01/26 08:15:49;;;;;;;;;;;-3.00;99.90;;;;;;4998000;28;20013;-89
2022/01/26 08:18:14;;;;;;;;;;;-2.90;99.90;;;;;;4983264;28;19918;-88
2022/01/26 08:20:40;;;;;;;;;;;-2.90;99.90;;;;;;5005182;28;19956;-88
2022/01/26 08:23:06;;;;;;;;;;;-2.80;99.90;;;;;;5004000;28;20448;-86
2022/01/26 08:25:32;;;;;;;;;;;-2.70;99.90;;;;;;4999167;28;19933;-87
2022/01/26 08:28:06;;;;;;;;;;;-2.70;99.90;;;;;;4981949;28;19910;-86
2022/01/26 08:30:36;;;;;;;;;;;-2.70;99.90;;;;;;4982420;28;19936;-87
2022/01/26 08:33:02;;;;;;;;;;;-2.70;99.90;;;;;;4998129;28;19913;-86
2022/01/26 08:35:27;;;;;;;;;;;-2.60;99.90;;;;;;5002068;28;19917;-86
2022/01/26 08:37:53;;;;;;;;;;;-2.50;99.90;;;;;;4998975;28;20067;-87
2022/01/26 08:40:18;;;;;;;;;;;-2.40;99.90;;;;;;4985730;28;19940;-90
2022/01/26 08:42:44;;;;;;;;;;;-2.30;99.90;;;;;;5002920;28;19926;-89
2022/01/26 08:45:10;;;;;;;;;;;-2.30;99.90;;;;;;5008611;28;19929;-87
2022/01/26 08:47:35;;;;;;;;;;;-2.20;99.90;;;;;;5000580;28;19945;-87
2022/01/26 08:50:01;;;;;;;;;;;-2.20;99.90;;;;;;5007915;28;20374;-86
2022/01/26 08:52:27;;;;;;;;;;;-2.20;99.90;;;;;;4970194;28;19956;-88
2022/01/26 08:54:53;;;;;;;;;;;-2.10;99.90;;;;;;5004957;28;19914;-87
2022/01/26 08:57:18;;;;;;;;;;;-1.90;99.90;;;;;;4984544;28;19922;-88
2022/01/26 08:59:44;;;;;;;;;;;-2.00;99.90;;;;;;4986908;28;19965;-86
2022/01/26 09:02:11;;;;;;;;;;;-1.90;99.90;;;;;;4998546;28;20447;-87
2022/01/26 09:04:36;;;;;;;;;;;-2.00;99.90;;;;;;5001546;28;19921;-87
2022/01/26 09:07:03;;;;;;;;;;;-1.90;99.90;;;;;;5001409;28;19959;-88
2022/01/26 09:09:32;;;;;;;;;;;-1.80;99.90;;;;;;5000591;28;19922;-89
2022/01/26 09:12:00;;;;;;;;;;;-1.70;99.90;;;;;;5002485;28;19917;-86
2022/01/26 09:14:28;;;;;;;;;;;-1.70;99.90;;;;;;5002847;28;19926;-88
2022/01/26 09:16:54;;;;;;;;;;;-1.40;99.90;;;;;;5004489;28;19924;-87
2022/01/26 09:19:31;;;;;;;;;;;-1.20;99.90;;;;;;4987955;28;19925;-87
2022/01/26 09:21:58;;;;;;;;;;;-1.10;99.90;;;;;;5002572;28;19922;-87
2022/01/26 09:24:25;;;;;;;;;;;-1.20;99.90;;;;;;4985368;28;19921;-90
2022/01/26 09:26:51;;;;;;;;;;;-1.20;99.90;;;;;;4985358;28;19921;-87
2022/01/26 09:29:16;;;;;;;;;;;-1.10;99.90;;;;;;5004459;28;20255;-87
2022/01/26 09:31:42;;;;;;;;;;;-1.20;99.90;;;;;;5000605;28;20004;-89
2022/01/26 09:34:08;;;;;;;;;;;-1.20;99.90;;;;;;4981891;28;19917;-86
2022/01/26 09:36:33;;;;;;;;;;;-1.00;99.90;;;;;;5001894;28;19929;-88
2022/01/26 09:38:59;;;;;;;;;;;-1.10;99.90;;;;;;4982241;28;19968;-87
2022/01/26 09:41:25;;;;;;;;;;;-1.20;99.90;;;;;;5003654;28;20400;-87
2022/01/26 09:43:51;;;;;;;;;;;-1.30;99.90;;;;;;5004780;28;19918;-88
2022/01/26 09:46:16;;;;;;;;;;;-1.20;99.90;;;;;;5008494;28;19925;-88
2022/01/26 09:48:43;;;;;;;;;;;-1.30;99.90;;;;;;5008263;28;20373;-90
2022/01/26 09:51:13;;;;;;;;;;;-1.20;99.90;;;;;;5004904;28;19921;-89
2022/01/26 09:53:38;;;;;;;;;;;-1.20;99.90;;;;;;4981721;28;19925;-86
2022/01/26 09:56:04;;;;;;;;;;;-1.10;99.90;;;;;;4979633;28;19926;-88
2022/01/26 09:58:30;;;;;;;;;;;-1.10;99.90;;;;;;5003351;28;19949;-87
2022/01/26 10:00:56;;;;;;;;;;;-1.00;99.90;;;;;;4982576;28;19925;-87
2022/01/26 10:03:24;;;;;;;;;;;-1.10;99.90;;;;;;5007226;28;20008;-86
2022/01/26 10:05:50;;;;;;;;;;;-1.00;99.90;;;;;;4999796;28;19941;-87
2022/01/26 10:18:56;;;;;;;;;;;-0.80;99.90;;;;;;5006318;28;19952;-87
2022/01/26 10:21:23;;;;;;;;;;;-0.80;99.90;;;;;;5008150;28;20296;-88
2022/01/26 10:23:49;;;;;;;;;;;-0.90;99.90;;;;;;5005340;28;19922;-88
2022/01/26 10:26:16;;;;;;;;;;;-0.90;99.90;;;;;;5002869;28;19914;-88
2022/01/26 10:28:45;;;;;;;;;;;-1.00;99.90;;;;;;5005060;28;19963;-90
2022/01/26 10:31:14;;;;;;;;;;;-0.90;99.90;;;;;;5000622;28;19922;-88
2022/01/26 10:33:40;;;;;;;;;;;-0.50;99.90;;;;;;4990555;28;19917;-87
2022/01/26 10:36:06;;;;;;;;;;;-0.30;99.90;;;;;;5004788;28;20075;-87
2022/01/26 10:38:31;;;;;;;;;;;-0.60;99.90;;;;;;4992860;28;20511;-87
2022/01/26 10:41:00;;;;;;;;;;;-0.50;99.90;;;;;;5009670;28;20467;-89
2022/01/26 10:43:29;;;;;;;;;;;-0.40;99.90;;;;;;5010191;28;19917;-86
2022/01/26 10:46:03;;;;;;;;;;;-0.40;99.90;;;;;;5003613;28;20679;-88
2022/01/26 10:48:59;;;;;;;;;;;-0.50;99.90;;;;;;5000352;28;20709;-88
2022/01/26 10:51:54;;;;;;;;;;;-0.30;99.90;;;;;;5005352;28;19925;-87
2022/01/26 10:54:35;;;;;;;;;;;-0.50;99.90;;;;;;4986388;28;19922;-88
2022/01/26 10:57:01;;;;;;;;;;;-0.20;99.90;;;;;;5004158;28;19988;-86
2022/01/26 10:59:26;;;;;;;;;;;-0.20;99.90;;;;;;5005966;28;20004;-86
2022/01/26 11:01:53;;;;;;;;;;;-0.30;99.90;;;;;;5000624;28;20008;-88
2022/01/26 11:04:19;;;;;;;;;;;-0.20;99.90;;;;;;4987956;28;19933;-88
2022/01/26 11:06:50;;;;;;;;;;;-0.10;99.90;;;;;;5003024;28;19965;-88
2022/01/26 11:09:18;;;;;;;;;;;-0.10;99.90;;;;;;4986569;28;20012;-90
2022/01/26 11:11:43;;;;;;;;;;;0.10;99.90;;;;;;5005981;28;19922;-88
2022/01/26 11:14:13;;;;;;;;;;;0.30;99.90;;;;;;5001873;28;19922;-89
2022/01/26 11:16:47;;;;;;;;;;;0.30;99.90;;;;;;5005052;28;20432;-88
2022/01/26 11:19:13;;;;;;;;;;;0.00;99.90;;;;;;5003003;28;19918;-88
2022/01/26 11:21:39;;;;;;;;;;;0.10;99.90;;;;;;4983151;28;20013;-80
2022/01/26 11:24:18;;;;;;;;;;;0.20;99.90;;;;;;5001533;28;19993;-82
2022/01/26 11:26:45;;;;;;;;;;;0.50;99.90;;;;;;4977323;28;19921;-82
2022/01/26 11:29:15;;;;;;;;;;;0.50;99.90;;;;;;4997299;28;19984;-80
2022/01/26 11:31:41;;;;;;;;;;;0.40;99.90;;;;;;4984667;28;19921;-81
2022/01/26 11:34:07;;;;;;;;;;;0.40;99.90;;;;;;5008221;28;20384;-82
2022/01/26 11:36:33;;;;;;;;;;;0.40;99.90;;;;;;4996640;28;20000;-85
2022/01/26 11:46:57;;;;;;;;;;;0.60;99.90;;;;;;4999172;28;19921;-83
2022/01/26 11:49:24;;;;;;;;;;;0.70;99.90;;;;;;5006653;28;19945;-86
2022/01/26 11:51:51;;;;;;;;;;;0.50;99.90;;;;;;5008466;28;19917;-88
2022/01/26 11:54:18;;;;;;;;;;;0.80;99.90;;;;;;4986002;28;20378;-87
2022/01/26 11:56:58;;;;;;;;;;;0.60;99.90;;;;;;4999356;28;19918;-88
2022/01/26 11:59:25;;;;;;;;;;;0.80;99.90;;;;;;5005145;28;19917;-79
2022/01/26 12:01:59;;;;;;;;;;;0.50;99.90;;;;;;4998725;28;20347;-79
2022/01/26 12:04:25;;;;;;;;;;;0.80;99.90;;;;;;4999478;28;19936;-83
2022/01/26 12:06:58;;;;;;;;;;;1.10;99.90;;;;;;4983393;28;19925;-78
2022/01/26 12:09:24;;;;;;;;;;;1.00;99.90;;;;;;5002105;28;19951;-78
2022/01/26 12:11:54;;;;;;;;;;;1.30;99.90;;;;;;5001081;28;19961;-83
2022/01/26 12:14:21;;;;;;;;;;;1.30;99.90;;;;;;4998584;28;19928;-82
2022/01/26 12:16:49;;;;;;;;;;;1.30;99.90;;;;;;4982287;28;19979;-79
2022/01/26 12:38:33;;;;;;;;;;;1.20;99.90;;;;;;4992941;28;19925;-80
2022/01/26 12:43:53;;;;;;;;;;;1.20;99.90;;;;;;4994939;28;19976;-79
2022/01/26 12:46:22;;;;;;;;;;;1.40;99.90;;;;;;4981856;28;20460;-77
2022/01/26 12:49:08;;;;;;;;;;;1.30;99.90;;;;;;4989458;28;19950;-77
2022/01/26 12:51:42;;;;;;;;;;;1.30;99.90;;;;;;4983530;28;20012;-78
2022/01/26 12:54:07;;;;;;;;;;;1.30;99.90;;;;;;4990823;28;19922;-78
2022/01/26 12:56:33;;;;;;;;;;;1.20;99.90;;;;;;4977850;28;19928;-80
2022/01/26 12:58:59;;;;;;;;;;;1.00;99.90;;;;;;4999074;28;19943;-78
2022/01/26 13:01:24;;;;;;;;;;;0.80;99.90;;;;;;4999349;28;19917;-79
2022/01/26 13:03:54;;;;;;;;;;;0.80;99.90;;;;;;4994177;28;19984;-81
2022/01/26 13:06:22;;;;;;;;;;;0.80;99.90;;;;;;4995210;28;19941;-80
2022/01/26 13:08:52;;;;;;;;;;;0.90;99.90;;;;;;4991049;28;19953;-80
2022/01/26 13:11:25;;;;;;;;;;;0.90;99.90;;;;;;4996619;28;19941;-80
2022/01/26 13:14:02;;;;;;;;;;;0.70;99.90;;;;;;4983900;28;20013;-78
2022/01/26 13:16:35;;;;;;;;;;;0.90;99.90;;;;;;4998483;28;19914;-83
2022/01/26 13:19:20;;;;;;;;;;;1.00;99.90;;;;;;4999683;28;20305;-87
2022/01/26 13:24:34;;;;;;;;;;;1.20;99.90;;;;;;4994231;28;20383;-88
2022/01/26 13:40:07;;;;;;;;;;;1.40;99.90;;;;;;5000208;28;19944;-85
2022/01/26 13:50:57;;;;;;;;;;;1.50;99.90;;;;;;4993285;28;20366;-86
2022/01/26 13:53:08;;;;;;;;;;;1.50;99.90;;;;;;4997858;28;19918;-87
2022/01/26 13:56:20;;;;;;;;;;;1.50;99.90;;;;;;4992680;28;19918;-84
2022/01/26 13:58:45;;;;;;;;;;;1.50;99.90;;;;;;4996740;28;19918;-87
2022/01/26 14:01:19;;;;;;;;;;;1.40;99.90;;;;;;4996241;28;19929;-86
2022/01/26 14:03:51;;;;;;;;;;;1.50;99.90;;;;;;4996626;28;19917;-88
2022/01/26 14:06:17;;;;;;;;;;;1.40;99.90;;;;;;4998935;28;19921;-88
2022/01/26 14:08:43;;;;;;;;;;;1.50;99.90;;;;;;5000165;28;20108;-87
2022/01/26 14:11:08;;;;;;;;;;;1.40;99.90;;;;;;4981344;28;20404;-87
2022/01/26 14:13:36;;;;;;;;;;;1.40;99.90;;;;;;4994479;28;20292;-85
2022/01/26 14:16:04;;;;;;;;;;;1.40;99.90;;;;;;4998967;28;19944;-89
2022/01/26 14:19:08;;;;;;;;;;;1.40;99.90;;;;;;4978900;28;20308;-84
2022/01/26 14:22:17;;;;;;;;;;;1.50;99.90;;;;;;4994857;28;19983;-88
2022/01/26 14:26:47;;;;;;;;;;;1.50;99.90;;;;;;4996473;28;19918;-85
2022/01/26 15:11:32;;;;;;;;;;;1.00;99.90;;;;;;4999849;28;19932;-85
2022/01/26 15:50:13;;;;;;;;;;;0.40;99.90;;;;;;4999549;28;19921;-87
2022/01/26 15:52:51;;;;;;;;;;;0.40;99.90;;;;;;5003068;28;19918;-86
2022/01/26 16:06:42;;;;;;;;;;;0.20;99.90;;;;;;4999315;28;19929;-87
2022/01/26 16:38:54;;;;;;;;;;;-0.50;99.90;;;;;;5000917;28;19925;-85
2022/01/26 16:52:51;;;;;;;;;;;-0.70;99.90;;;;;;4997494;28;20400;-87
2022/01/26 18:04:02;;;;;;;;;;;-1.00;99.90;;;;;;5000142;28;20295;-88
2022/01/26 18:17:42;;;;;;;;;;;-1.20;99.90;;;;;;4996709;28;19924;-85
2022/01/26 18:49:46;;;;;;;;;;;-1.40;99.90;;;;;;4974296;28;19968;-86
2022/01/26 18:52:12;;;;;;;;;;;-1.40;99.90;;;;;;4999799;28;19913;-87
2022/01/26 18:54:38;;;;;;;;;;;-1.40;99.90;;;;;;5003186;28;19917;-87
2022/01/26 18:57:05;;;;;;;;;;;-1.40;99.90;;;;;;5015996;28;20387;-89
2022/01/26 18:59:31;;;;;;;;;;;-1.40;99.90;;;;;;5014816;28;19918;-86
2022/01/26 19:02:03;;;;;;;;;;;-1.50;99.90;;;;;;5013585;28;20428;-82
2022/01/26 19:04:39;;;;;;;;;;;-1.50;99.90;;;;;;5017286;28;20004;-86
2022/01/26 19:07:05;;;;;;;;;;;-1.50;99.90;;;;;;5013074;28;19917;-84
2022/01/26 19:09:34;;;;;;;;;;;-1.50;99.90;;;;;;4979488;28;20574;-86
2022/01/26 19:12:02;;;;;;;;;;;-1.50;99.90;;;;;;4995928;28;19951;-87
2022/01/26 19:14:33;;;;;;;;;;;-1.50;99.90;;;;;;5012158;28;19909;-84
2022/01/26 19:17:11;;;;;;;;;;;-1.60;99.90;;;;;;4996833;28;19918;-86
2022/01/26 19:22:17;;;;;;;;;;;-1.60;99.90;;;;;;5014655;28;19924;-86
2022/01/26 19:24:53;;;;;;;;;;;-1.60;99.90;;;;;;5012222;28;19921;-86
2022/01/26 19:30:00;;;;;;;;;;;-1.70;99.90;;;;;;4999362;28;19944;-88
2022/01/26 19:32:52;;;;;;;;;;;-1.70;99.90;;;;;;5010573;28;20002;-86
2022/01/26 19:51:06;;;;;;;;;;;-1.50;99.90;;;;;;5013213;28;19920;-86
2022/01/26 19:53:32;;;;;;;;;;;-1.50;99.90;;;;;;5012459;28;19969;-86
2022/01/26 19:55:58;;;;;;;;;;;-1.50;99.90;;;;;;5011557;28;19910;-87
2022/01/26 19:58:25;;;;;;;;;;;-1.50;99.90;;;;;;5012333;28;20518;-86
2022/01/26 20:00:51;;;;;;;;;;;-1.50;99.90;;;;;;5010514;28;20004;-86
2022/01/26 20:03:17;;;;;;;;;;;-1.50;99.90;;;;;;5012264;28;19957;-85
2022/01/26 20:05:43;;;;;;;;;;;-1.50;99.90;;;;;;5012171;28;19917;-86
2022/01/26 20:10:48;;;;;;;;;;;-1.50;99.90;;;;;;5028694;28;20308;-86
2022/01/26 20:13:24;;;;;;;;;;;-1.50;99.90;;;;;;4995592;28;19914;-88
2022/01/26 20:15:52;;;;;;;;;;;-1.60;99.90;;;;;;5020911;28;19924;-85
2022/01/26 20:18:20;;;;;;;;;;;-1.70;99.90;;;;;;4996717;28;20392;-87
2022/01/26 20:20:45;;;;;;;;;;;-1.90;99.90;;;;;;5014871;28;20338;-86
2022/01/26 20:23:14;;;;;;;;;;;-1.90;99.90;;;;;;5020497;28;19924;-86
2022/01/26 20:25:40;;;;;;;;;;;-1.90;99.90;;;;;;5032410;28;19920;-87
2022/01/26 20:28:06;;;;;;;;;;;-1.80;99.90;;;;;;5001001;28;19910;-84
2022/01/26 20:30:34;;;;;;;;;;;-1.80;99.90;;;;;;5028398;28;19960;-84
2022/01/26 20:32:59;;;;;;;;;;;-1.80;99.90;;;;;;5018192;28;19917;-82
2022/01/26 20:35:25;;;;;;;;;;;-1.80;99.90;;;;;;5025271;28;20293;-85
2022/01/26 20:37:50;;;;;;;;;;;-1.80;99.90;;;;;;5012017;28;19918;-84
2022/01/26 20:40:16;;;;;;;;;;;-1.90;99.90;;;;;;5015046;28;19924;-84
2022/01/26 20:42:42;;;;;;;;;;;-1.90;99.90;;;;;;5009813;28;20330;-86
2022/01/26 20:45:08;;;;;;;;;;;-1.90;99.90;;;;;;5016550;28;20032;-84
2022/01/26 20:47:34;;;;;;;;;;;-1.90;99.90;;;;;;5017960;28;19917;-87
2022/01/26 20:50:00;;;;;;;;;;;-1.80;99.90;;;;;;5030762;28;20059;-87
2022/01/26 20:52:26;;;;;;;;;;;-1.90;99.90;;;;;;5030678;28;20584;-90
2022/01/26 20:54:51;;;;;;;;;;;-1.90;99.90;;;;;;5017014;28;20000;-88
2022/01/26 20:57:17;;;;;;;;;;;-2.00;99.90;;;;;;5013932;28;19928;-86
2022/01/26 20:59:42;;;;;;;;;;;-2.10;99.90;;;;;;5013663;28;19920;-87
2022/01/26 21:02:08;;;;;;;;;;;-2.20;99.90;;;;;;5017585;28;19984;-85
2022/01/26 21:04:34;;;;;;;;;;;-2.20;99.90;;;;;;5017529;28;19922;-87
2022/01/26 21:07:00;;;;;;;;;;;-2.20;99.90;;;;;;5011031;28;19914;-88
2022/01/26 21:09:26;;;;;;;;;;;-2.20;99.90;;;;;;5028584;28;19917;-87
2022/01/26 21:11:51;;;;;;;;;;;-2.30;99.90;;;;;;5020747;28;19924;-88
2022/01/26 21:14:17;;;;;;;;;;;-2.30;99.90;;;;;;5011388;28;19920;-89
2022/01/26 21:16:42;;;;;;;;;;;-2.30;99.90;;;;;;5010712;28;19955;-89
2022/01/26 21:19:09;;;;;;;;;;;-2.30;99.90;;;;;;5019507;28;19917;-88
2022/01/26 21:21:35;;;;;;;;;;;-2.30;99.90;;;;;;5009954;28;20409;-85
2022/01/26 21:24:01;;;;;;;;;;;-2.20;99.90;;;;;;5009718;28;19917;-86
2022/01/26 21:26:27;;;;;;;;;;;-2.10;99.90;;;;;;5011842;28;20032;-86
2022/01/26 21:28:52;;;;;;;;;;;-2.10;99.90;;;;;;5010363;28;19913;-86
2022/01/26 21:31:18;;;;;;;;;;;-2.10;99.90;;;;;;5010402;28;19921;-85
2022/01/26 21:33:45;;;;;;;;;;;-2.10;99.90;;;;;;5013792;28;19918;-88
2022/01/26 21:36:11;;;;;;;;;;;-2.10;99.90;;;;;;5013454;28;19917;-85
2022/01/26 21:38:37;;;;;;;;;;;-2.10;99.90;;;;;;5018693;28;20962;-87